Time;durP1;ratioP1;P1;durP2;ratioP2;P2;SDS_P1;SDS_P2;PMS_P1;PMS_P2;Temp;Humidity;BMP_temperature;BMP_pressure;BME280_temperature;BME280_humidity;BME280_pressure;Samples;Min_cycle;Max_cycle;Signal;HPM_P1;HPM_P2
2022/02/09 00:02:08;;;;;;;263.73;254.63;;;9.30;99.90;;;;;;5037184;28;20452;-82
2022/02/09 00:04:41;;;;;;;268.00;258.57;;;9.30;99.90;;;;;;5037305;28;20475;-83
2022/02/09 00:07:12;;;;;;;280.17;270.27;;;9.40;99.90;;;;;;5038007;28;20492;-83
2022/02/09 00:09:43;;;;;;;289.10;278.63;;;9.30;99.90;;;;;;5036554;28;20535;-82
2022/02/09 00:12:17;;;;;;;296.97;285.83;;;9.30;99.90;;;;;;5037673;28;20452;-84
2022/02/09 00:14:53;;;;;;;308.00;296.37;;;9.20;99.90;;;;;;5037262;28;20507;-83
2022/02/09 00:37:05;;;;;;;360.67;346.20;;;9.10;99.90;;;;;;5037153;28;20448;-83
2022/02/09 00:39:44;;;;;;;368.13;353.30;;;9.00;99.90;;;;;;5036413;28;20907;-83
2022/02/09 00:58:43;;;;;;;368.97;353.87;;;9.00;99.90;;;;;;5012267;28;20551;-83
2022/02/09 01:38:06;;;;;;;325.93;313.60;;;9.30;99.90;;;;;;5020001;28;20476;-83
2022/02/09 01:41:29;;;;;;;331.87;318.77;;;9.30;99.90;;;;;;5021794;28;20806;-83
2022/02/09 01:57:24;;;;;;;272.33;262.17;;;9.50;99.90;;;;;;5038757;28;20809;-83
2022/02/09 01:59:51;;;;;;;273.43;262.97;;;9.40;99.90;;;;;;5039026;28;20451;-83
2022/02/09 02:02:18;;;;;;;274.33;264.00;;;9.40;99.90;;;;;;5047389;28;20440;-82
2022/02/09 02:04:47;;;;;;;235.43;226.67;;;9.40;99.90;;;;;;5058486;28;20454;-84
2022/02/09 02:07:24;;;;;;;211.33;203.43;;;9.50;99.90;;;;;;5058950;28;20468;-83
2022/02/09 02:09:52;;;;;;;207.33;199.23;;;9.60;99.90;;;;;;5043809;28;20452;-83
2022/02/09 02:12:21;;;;;;;206.40;198.33;;;9.60;99.90;;;;;;5039224;28;20452;-83
2022/02/09 02:14:57;;;;;;;185.30;178.10;;;9.60;99.90;;;;;;5039412;28;20844;-83
2022/02/09 02:17:31;;;;;;;193.07;185.67;;;9.50;99.90;;;;;;5039794;28;20452;-83
2022/02/09 02:20:09;;;;;;;185.37;178.20;;;9.60;99.90;;;;;;5040238;28;20452;-83
2022/02/09 02:22:47;;;;;;;180.10;173.10;;;9.70;99.90;;;;;;5058622;28;20436;-82
2022/02/09 02:25:43;;;;;;;178.40;171.17;;;9.50;99.90;;;;;;5058470;28;20457;-83
2022/02/09 02:28:31;;;;;;;190.70;183.20;;;9.50;99.90;;;;;;5058826;28;20424;-82
2022/02/09 02:31:24;;;;;;;196.93;189.27;;;9.40;99.90;;;;;;5043018;28;20956;-83
2022/02/09 02:34:33;;;;;;;191.17;184.07;;;9.40;99.90;;;;;;5038354;28;20472;-83
2022/02/09 02:37:21;;;;;;;211.00;203.00;;;9.40;99.90;;;;;;5037598;28;20448;-82
2022/02/09 02:40:13;;;;;;;243.83;235.07;;;9.40;99.90;;;;;;5038399;28;20825;-82
2022/02/09 02:43:32;;;;;;;235.77;227.07;;;9.40;99.90;;;;;;5038021;28;20456;-82
2022/02/09 02:57:23;;;;;;;226.40;218.10;;;9.40;99.90;;;;;;4994006;28;20455;-82
2022/02/09 03:11:01;;;;;;;179.20;172.43;;;9.30;99.90;;;;;;5029677;28;20979;-82
2022/02/09 03:13:32;;;;;;;177.87;171.07;;;9.40;99.90;;;;;;5038685;28;20472;-83
2022/02/09 03:16:03;;;;;;;185.70;178.53;;;9.30;99.90;;;;;;5039005;28;20475;-83
2022/02/09 03:18:54;;;;;;;184.70;177.27;;;9.30;99.90;;;;;;5039259;28;20496;-84
2022/02/09 03:21:34;;;;;;;173.17;166.57;;;9.30;99.90;;;;;;5038495;28;20458;-84
2022/02/09 03:24:07;;;;;;;180.10;173.20;;;9.40;99.90;;;;;;5038099;28;20495;-82
2022/02/09 03:26:54;;;;;;;179.70;172.87;;;9.30;99.90;;;;;;5038980;28;20567;-87
2022/02/09 03:43:23;;;;;;;178.83;172.07;;;9.10;99.90;;;;;;5035968;28;20451;-80
2022/02/09 03:46:15;;;;;;;163.37;157.00;;;9.20;99.90;;;;;;5036321;28;20476;-83
2022/02/09 03:48:58;;;;;;;156.57;150.37;;;9.20;99.90;;;;;;5029670;28;20484;-83
2022/02/09 03:51:49;;;;;;;142.00;136.73;;;9.10;99.90;;;;;;5029295;28;20486;-83
2022/02/09 03:54:25;;;;;;;144.23;138.20;;;9.20;99.90;;;;;;5036413;28;20541;-83
2022/02/09 03:56:59;;;;;;;137.37;131.87;;;9.10;99.80;;;;;;5036773;28;20970;-83
2022/02/09 03:59:28;;;;;;;140.23;134.80;;;9.20;99.80;;;;;;5036105;28;20486;-83
2022/02/09 04:01:56;;;;;;;126.27;121.27;;;9.20;99.80;;;;;;5037126;28;20454;-83
2022/02/09 04:04:23;;;;;;;107.47;103.27;;;9.20;99.60;;;;;;5036885;28;20472;-83
2022/02/09 04:06:51;;;;;;;99.03;95.20;;;9.20;99.40;;;;;;5036704;28;20472;-83
2022/02/09 04:09:22;;;;;;;83.73;80.10;;;9.10;99.00;;;;;;5036112;28;20448;-83
2022/02/09 04:11:55;;;;;;;65.80;63.00;;;9.20;98.70;;;;;;5036701;28;20554;-84
2022/02/09 04:14:29;;;;;;;42.87;40.57;;;9.20;98.20;;;;;;5036738;28;20478;-84
2022/02/09 04:17:37;;;;;;;47.20;44.13;;;9.20;97.70;;;;;;5034121;28;20451;-84
2022/02/09 04:20:23;;;;;;;32.60;30.63;;;9.20;97.80;;;;;;5023351;28;20452;-82
2022/02/09 04:36:56;;;;;;;21.60;20.00;;;9.20;96.20;;;;;;5035094;28;20449;-80
2022/02/09 04:39:28;;;;;;;19.80;18.40;;;9.20;96.20;;;;;;5034308;28;20464;-81
2022/02/09 04:42:17;;;;;;;20.90;19.17;;;9.20;95.90;;;;;;5034636;28;20511;-81
2022/02/09 04:47:36;;;;;;;18.13;16.80;;;9.30;95.70;;;;;;5014080;28;21146;-81
2022/02/09 04:50:19;;;;;;;14.83;13.23;;;9.30;95.30;;;;;;5035990;28;20452;-80
2022/02/09 04:53:03;;;;;;;17.77;16.13;;;9.20;95.00;;;;;;5035982;28;20456;-79
2022/02/09 04:58:33;;;;;;;15.07;13.87;;;9.20;95.20;;;;;;5094289;28;20446;-84
2022/02/09 05:01:16;;;;;;;16.23;13.00;;;9.20;94.70;;;;;;5095660;28;20495;-84
2022/02/09 05:04:19;;;;;;;12.10;9.20;;;9.30;93.90;;;;;;5096761;28;20528;-84
2022/02/09 05:18:27;;;;;;;12.57;11.33;;;9.20;94.00;;;;;;5106417;28;20441;-84
2022/02/09 05:21:22;;;;;;;13.40;12.30;;;9.10;93.70;;;;;;5123523;28;20457;-85
2022/02/09 05:24:08;;;;;;;14.33;13.03;;;9.10;94.10;;;;;;5118444;28;20477;-84
2022/02/09 05:26:40;;;;;;;14.30;13.00;;;9.10;94.10;;;;;;5103812;28;20463;-84
2022/02/09 05:29:08;;;;;;;16.37;14.73;;;9.10;94.20;;;;;;5099494;28;20460;-85
2022/02/09 05:31:52;;;;;;;13.67;12.23;;;9.10;94.40;;;;;;5103321;28;20450;-84
2022/02/09 05:34:19;;;;;;;21.70;19.40;;;9.10;94.40;;;;;;5104500;28;20453;-85
2022/02/09 05:36:46;;;;;;;16.33;14.93;;;9.10;94.40;;;;;;5104977;28;20964;-84
2022/02/09 05:39:14;;;;;;;18.90;17.00;;;9.20;94.50;;;;;;5106755;28;20880;-84
2022/02/09 05:41:44;;;;;;;17.27;15.70;;;9.10;94.50;;;;;;5107100;28;20472;-84
2022/02/09 05:44:13;;;;;;;20.60;18.90;;;9.10;94.50;;;;;;5108904;28;20485;-84
2022/02/09 05:47:50;;;;;;;17.60;16.10;;;9.10;94.70;;;;;;5100320;28;20469;-85
2022/02/09 05:49:53;;;;;;;21.70;19.80;;;9.10;94.50;;;;;;5105619;28;20446;-84
2022/02/09 05:52:27;;;;;;;21.50;19.80;;;9.20;94.80;;;;;;5106836;28;20473;-84
2022/02/09 05:55:34;;;;;;;24.20;21.93;;;9.20;94.80;;;;;;5106757;28;20504;-84
2022/02/09 05:58:14;;;;;;;23.03;21.30;;;9.10;95.00;;;;;;5086905;28;20449;-84
2022/02/09 06:00:42;;;;;;;21.50;19.73;;;9.20;95.00;;;;;;5106291;28;20441;-84
2022/02/09 06:03:12;;;;;;;20.60;18.67;;;9.20;94.80;;;;;;5106431;28;20446;-84
2022/02/09 06:05:49;;;;;;;25.23;23.37;;;9.20;94.60;;;;;;5107529;28;20466;-84
2022/02/09 06:08:16;;;;;;;23.93;22.20;;;9.20;94.90;;;;;;5105394;28;20446;-84
2022/02/09 06:10:50;;;;;;;25.30;23.20;;;9.20;95.00;;;;;;5106586;28;20536;-84
2022/02/09 06:14:13;;;;;;;22.57;20.67;;;9.10;95.00;;;;;;5098518;28;20938;-86
2022/02/09 06:19:54;;;;;;;24.90;23.20;;;9.20;95.00;;;;;;5094450;28;20436;-84
2022/02/09 06:22:22;;;;;;;26.20;24.50;;;9.20;95.10;;;;;;5104230;28;20513;-83
2022/02/09 06:24:49;;;;;;;23.70;22.20;;;9.30;95.00;;;;;;5104654;28;20481;-84
2022/02/09 06:27:22;;;;;;;21.83;20.33;;;9.30;95.20;;;;;;5102476;28;20947;-84
2022/02/09 06:29:49;;;;;;;24.67;22.80;;;9.30;95.00;;;;;;5104092;28;20454;-83
2022/02/09 06:32:17;;;;;;;23.90;22.13;;;9.30;94.80;;;;;;5102343;28;20450;-83
2022/02/09 06:34:45;;;;;;;22.70;20.90;;;9.30;95.00;;;;;;5104071;28;20469;-83
2022/02/09 06:37:19;;;;;;;21.60;20.00;;;9.30;95.00;;;;;;5104575;28;20449;-84
2022/02/09 06:39:55;;;;;;;24.40;22.67;;;9.30;95.00;;;;;;5107091;28;20452;-83
2022/02/09 06:42:24;;;;;;;31.90;22.37;;;9.20;94.90;;;;;;5106555;28;20873;-83
2022/02/09 06:44:51;;;;;;;19.80;18.47;;;9.20;94.60;;;;;;5103988;28;20465;-84
2022/02/09 06:47:53;;;;;;;20.10;18.40;;;9.30;94.60;;;;;;5101185;28;20523;-83
2022/02/09 06:50:37;;;;;;;23.50;21.40;;;9.40;94.80;;;;;;5100007;28;20453;-84
2022/02/09 06:56:12;;;;;;;20.87;19.17;;;9.30;94.70;;;;;;5097935;28;20450;-83
2022/02/09 07:01:32;;;;;;;21.60;20.00;;;9.40;94.30;;;;;;5100709;28;20450;-84
2022/02/09 07:04:02;;;;;;;20.50;19.00;;;9.40;94.60;;;;;;5101167;28;21043;-84
2022/02/09 07:06:29;;;;;;;19.33;17.93;;;9.30;94.70;;;;;;5100858;28;20889;-82
2022/02/09 07:11:42;;;;;;;21.67;20.07;;;9.40;94.50;;;;;;5086665;28;20461;-83
2022/02/09 07:14:10;;;;;;;20.83;18.83;;;9.40;94.50;;;;;;5099742;28;20461;-84
2022/02/09 07:16:38;;;;;;;22.00;20.03;;;9.40;94.50;;;;;;5101364;28;20485;-83
2022/02/09 07:19:08;;;;;;;21.00;19.20;;;9.40;94.50;;;;;;5101043;28;20449;-84
2022/02/09 07:21:37;;;;;;;18.90;17.30;;;9.40;94.50;;;;;;5102152;28;20450;-83
2022/02/09 07:24:05;;;;;;;18.00;16.50;;;9.40;94.30;;;;;;5101302;28;20496;-84
2022/02/09 07:29:37;;;;;;;;;;;;;;;;;;;;;
2022/02/09 07:32:12;;;;;;;19.83;18.13;;;9.50;94.60;;;;;;5099133;28;20449;-84
2022/02/09 07:34:46;;;;;;;20.93;19.03;;;9.50;94.30;;;;;;5101347;28;20473;-84
2022/02/09 07:40:30;;;;;;;21.87;19.97;;;9.60;94.20;;;;;;5094911;28;20458;-85
2022/02/09 07:43:03;;;;;;;20.77;18.63;;;9.60;94.50;;;;;;5099670;28;20957;-85
2022/02/09 07:45:57;;;;;;;18.63;16.93;;;9.60;94.50;;;;;;5100274;28;20477;-83
2022/02/09 07:48:41;;;;;;;17.50;15.90;;;9.70;94.30;;;;;;5100117;28;20997;-84
2022/02/09 07:51:36;;;;;;;16.23;14.83;;;9.50;94.20;;;;;;5099583;28;20441;-84
2022/02/09 07:54:08;;;;;;;17.10;15.40;;;9.70;93.80;;;;;;5099443;28;20474;-84
2022/02/09 07:56:50;;;;;;;17.30;15.63;;;9.60;94.10;;;;;;5100013;28;20458;-83
2022/02/09 07:59:17;;;;;;;14.40;13.20;;;9.60;94.20;;;;;;5099824;28;20948;-84
2022/02/09 08:01:46;;;;;;;21.30;15.57;;;9.60;94.00;;;;;;5100550;28;20449;-84
2022/02/09 08:04:14;;;;;;;17.43;15.93;;;9.60;94.10;;;;;;5100340;28;20484;-84
2022/02/09 08:06:44;;;;;;;16.60;15.10;;;9.60;94.10;;;;;;5099857;28;20560;-84
2022/02/09 08:09:19;;;;;;;15.37;13.97;;;9.50;93.90;;;;;;5099660;28;20515;-83
2022/02/09 08:11:56;;;;;;;17.03;15.53;;;9.60;93.60;;;;;;5099764;28;20537;-84
2022/02/09 08:28:43;;;;;;;11.37;10.17;;;9.80;93.00;;;;;;5120369;28;20601;-83
2022/02/09 08:34:05;;;;;;;10.40;9.50;;;9.70;93.00;;;;;;5083332;28;21037;-84
2022/02/09 08:36:32;;;;;;;10.23;9.27;;;9.80;93.00;;;;;;5120333;28;20447;-84
2022/02/09 08:38:59;;;;;;;14.00;10.53;;;9.80;93.30;;;;;;5120185;28;20520;-84
2022/02/09 08:41:26;;;;;;;16.63;15.07;;;9.70;93.50;;;;;;5120438;28;20535;-85
2022/02/09 08:43:53;;;;;;;17.33;16.13;;;9.80;94.20;;;;;;5120507;28;20465;-83
2022/02/09 08:46:20;;;;;;;16.07;14.70;;;9.70;94.50;;;;;;5119410;28;20536;-83
2022/02/09 08:48:49;;;;;;;19.57;18.17;;;9.70;94.40;;;;;;5120246;28;20480;-84
2022/02/09 08:51:19;;;;;;;21.10;19.80;;;9.60;94.60;;;;;;5118936;28;20444;-86
2022/02/09 08:53:48;;;;;;;18.33;17.13;;;9.70;94.90;;;;;;5118743;28;20444;-84
2022/02/09 08:56:19;;;;;;;15.93;14.83;;;9.70;94.30;;;;;;5119528;28;20971;-84
2022/02/09 08:59:06;;;;;;;20.90;19.10;;;9.80;94.10;;;;;;5120754;28;20536;-84
2022/02/09 09:04:55;;;;;;;56.67;51.42;;;9.80;94.90;;;;;;5115815;28;20451;-84
2022/02/09 10:34:49;;;;;;;203.23;195.23;;;9.50;99.80;;;;;;5036018;28;20605;-84
2022/02/09 10:48:17;;;;;;;;;;;;;;;;;;;;;
2022/02/09 11:36:45;;;;;;;14.30;8.20;;;11.70;86.20;;;;;;5014435;28;20879;-85
2022/02/09 15:19:20;;;;;;;10.20;3.10;;;11.10;69.50;;;;;;6196089;23;20448;-86
2022/02/09 15:25:22;;;;;;;13.13;3.60;;;11.60;67.40;;;;;;6162191;23;20424;-86
2022/02/09 15:31:31;;;;;;;8.03;3.70;;;11.30;67.50;;;;;;6063597;23;20495;-82
2022/02/09 15:38:42;;;;;;;10.70;5.77;;;11.00;70.70;;;;;;6011084;23;20488;-86
2022/02/09 16:09:22;;;;;;;8.17;3.90;;;10.00;73.70;;;;;;6097398;23;20869;-89
2022/02/09 17:20:48;;;;;;;356.23;341.33;;;6.20;99.90;;;;;;5974300;23;20835;-87
